sensor_id;sensor_type;location;lat;lon;timestamp;temperature;humidity
38936;DHT22;66589;47.458;9.644;2023-05-09T03:18:28;15.80;99.90
38936;DHT22;66589;47.458;9.644;2023-05-09T03:20:54;15.80;99.90
38936;DHT22;66589;47.458;9.644;2023-05-09T03:23:20;15.70;99.90
38936;DHT22;66589;47.458;9.644;2023-05-09T03:25:48;15.80;99.90
38936;DHT22;66589;47.458;9.644;2023-05-09T03:28:14;15.80;99.90
38936;DHT22;66589;47.458;9.644;2023-05-09T03:30:39;15.90;99.90
38936;DHT22;66589;47.458;9.644;2023-05-09T03:33:06;15.90;99.90
38936;DHT22;66589;47.458;9.644;2023-05-09T03:35:32;15.90;99.90
38936;DHT22;66589;47.458;9.644;2023-05-09T03:37:57;15.90;99.90
38936;DHT22;66589;47.458;9.644;2023-05-09T03:40:23;15.90;99.90
38936;DHT22;66589;47.458;9.644;2023-05-09T03:42:49;15.90;99.90
38936;DHT22;66589;47.458;9.644;2023-05-09T03:45:14;15.80;99.90
38936;DHT22;66589;47.458;9.644;2023-05-09T03:47:40;15.80;99.90
38936;DHT22;66589;47.458;9.644;2023-05-09T03:50:06;15.80;99.90
38936;DHT22;66589;47.458;9.644;2023-05-09T03:52:32;15.80;99.90
38936;DHT22;66589;47.458;9.644;2023-05-09T03:54:58;15.80;99.90
38936;DHT22;66589;47.458;9.644;2023-05-09T03:57:24;15.80;99.90
38936;DHT22;66589;47.458;9.644;2023-05-09T03:59:49;15.80;99.90
38936;DHT22;66589;47.458;9.644;2023-05-09T04:02:15;15.70;99.90
38936;DHT22;66589;47.458;9.644;2023-05-09T04:04:41;15.70;99.90
38936;DHT22;66589;47.458;9.644;2023-05-09T04:07:07;15.70;99.90
38936;DHT22;66589;47.458;9.644;2023-05-09T04:09:33;15.60;99.90
38936;DHT22;66589;47.458;9.644;2023-05-09T04:11:59;15.60;99.90
38936;DHT22;66589;47.458;9.644;2023-05-09T04:14:24;15.70;99.90
38936;DHT22;66589;47.458;9.644;2023-05-09T04:16:50;15.70;99.90
38936;DHT22;66589;47.458;9.644;2023-05-09T04:19:16;15.70;99.90
38936;DHT22;66589;47.458;9.644;2023-05-09T04:21:41;15.70;99.90
38936;DHT22;66589;47.458;9.644;2023-05-09T04:24:07;15.70;99.90
38936;DHT22;66589;47.458;9.644;2023-05-09T04:26:33;15.70;99.90
38936;DHT22;66589;47.458;9.644;2023-05-09T04:29:02;15.70;99.90
38936;DHT22;66589;47.458;9.644;2023-05-09T04:31:28;15.70;99.90
38936;DHT22;66589;47.458;9.644;2023-05-09T04:33:54;15.80;99.90
38936;DHT22;66589;47.458;9.644;2023-05-09T04:36:22;15.80;99.90
38936;DHT22;66589;47.458;9.644;2023-05-09T04:38:48;15.90;99.90
38936;DHT22;66589;47.458;9.644;2023-05-09T04:41:14;15.90;99.90
38936;DHT22;66589;47.458;9.644;2023-05-09T04:43:40;16.00;99.90
38936;DHT22;66589;47.458;9.644;2023-05-09T04:46:07;16.00;99.90
38936;DHT22;66589;47.458;9.644;2023-05-09T04:48:34;16.10;99.90
38936;DHT22;66589;47.458;9.644;2023-05-09T04:51:00;16.20;99.90
38936;DHT22;66589;47.458;9.644;2023-05-09T04:53:26;16.30;99.90
38936;DHT22;66589;47.458;9.644;2023-05-09T04:55:53;16.40;99.90
38936;DHT22;66589;47.458;9.644;2023-05-09T04:58:19;16.40;99.90
38936;DHT22;66589;47.458;9.644;2023-05-09T05:00:45;16.40;99.90
38936;DHT22;66589;47.458;9.644;2023-05-09T05:03:11;16.50;99.90
38936;DHT22;66589;47.458;9.644;2023-05-09T05:05:37;16.40;99.90
38936;DHT22;66589;47.458;9.644;2023-05-09T05:08:04;16.50;99.90
38936;DHT22;66589;47.458;9.644;2023-05-09T05:10:30;16.50;99.90
38936;DHT22;66589;47.458;9.644;2023-05-09T05:12:56;16.60;99.90
38936;DHT22;66589;47.458;9.644;2023-05-09T05:15:21;16.60;99.90
38936;DHT22;66589;47.458;9.644;2023-05-09T05:17:47;16.60;99.90
38936;DHT22;66589;47.458;9.644;2023-05-09T05:20:13;16.60;99.90
38936;DHT22;66589;47.458;9.644;2023-05-09T05:22:38;16.60;99.90
38936;DHT22;66589;47.458;9.644;2023-05-09T05:25:04;16.60;99.90
38936;DHT22;66589;47.458;9.644;2023-05-09T05:27:30;16.60;99.90
38936;DHT22;66589;47.458;9.644;2023-05-09T05:29:56;16.60;99.90
38936;DHT22;66589;47.458;9.644;2023-05-09T05:32:22;16.60;99.90
38936;DHT22;66589;47.458;9.644;2023-05-09T05:34:47;16.60;99.90
38936;DHT22;66589;47.458;9.644;2023-05-09T05:37:13;16.60;99.90
38936;DHT22;66589;47.458;9.644;2023-05-09T05:39:39;16.50;99.90
38936;DHT22;66589;47.458;9.644;2023-05-09T05:42:05;16.50;99.90
38936;DHT22;66589;47.458;9.644;2023-05-09T05:44:30;16.50;99.90
38936;DHT22;66589;47.458;9.644;2023-05-09T05:46:56;16.60;99.90
38936;DHT22;66589;47.458;9.644;2023-05-09T05:49:21;16.70;99.90
38936;DHT22;66589;47.458;9.644;2023-05-09T05:51:49;16.80;99.90
38936;DHT22;66589;47.458;9.644;2023-05-09T05:54:15;16.90;99.90
38936;DHT22;66589;47.458;9.644;2023-05-09T05:56:41;17.00;99.90
38936;DHT22;66589;47.458;9.644;2023-05-09T05:59:07;17.10;98.80
38936;DHT22;66589;47.458;9.644;2023-05-09T06:01:33;17.20;99.00
38936;DHT22;66589;47.458;9.644;2023-05-09T06:03:58;17.30;98.60
38936;DHT22;66589;47.458;9.644;2023-05-09T06:06:25;17.40;98.10
38936;DHT22;66589;47.458;9.644;2023-05-09T06:08:51;17.40;97.50
38936;DHT22;66589;47.458;9.644;2023-05-09T06:11:17;17.40;96.60
38936;DHT22;66589;47.458;9.644;2023-05-09T06:13:43;17.50;96.50
38936;DHT22;66589;47.458;9.644;2023-05-09T06:16:09;17.50;95.30
38936;DHT22;66589;47.458;9.644;2023-05-09T06:18:36;17.50;95.90
38936;DHT22;66589;47.458;9.644;2023-05-09T06:21:05;17.60;95.40
38936;DHT22;66589;47.458;9.644;2023-05-09T06:23:31;17.60;95.90
38936;DHT22;66589;47.458;9.644;2023-05-09T06:25:57;17.60;94.80
38936;DHT22;66589;47.458;9.644;2023-05-09T06:28:23;17.70;94.90
38936;DHT22;66589;47.458;9.644;2023-05-09T06:30:48;17.80;94.60
38936;DHT22;66589;47.458;9.644;2023-05-09T06:33:14;17.90;94.30
38936;DHT22;66589;47.458;9.644;2023-05-09T06:35:40;18.10;94.10
38936;DHT22;66589;47.458;9.644;2023-05-09T06:38:06;18.10;92.90
38936;DHT22;66589;47.458;9.644;2023-05-09T06:40:31;18.20;93.00
38936;DHT22;66589;47.458;9.644;2023-05-09T06:42:57;18.30;92.80
38936;DHT22;66589;47.458;9.644;2023-05-09T06:45:23;18.50;92.40
38936;DHT22;66589;47.458;9.644;2023-05-09T06:47:48;18.70;92.10
38936;DHT22;66589;47.458;9.644;2023-05-09T06:50:14;18.90;91.20
38936;DHT22;66589;47.458;9.644;2023-05-09T06:52:40;19.00;90.60
38936;DHT22;66589;47.458;9.644;2023-05-09T06:55:06;19.00;90.50
38936;DHT22;66589;47.458;9.644;2023-05-09T06:57:32;19.10;90.40
38936;DHT22;66589;47.458;9.644;2023-05-09T06:59:58;19.20;89.10
38936;DHT22;66589;47.458;9.644;2023-05-09T07:02:23;19.40;89.80
38936;DHT22;66589;47.458;9.644;2023-05-09T07:04:49;19.60;89.00
38936;DHT22;66589;47.458;9.644;2023-05-09T07:07:15;19.80;89.20
38936;DHT22;66589;47.458;9.644;2023-05-09T07:09:40;19.70;89.80
38936;DHT22;66589;47.458;9.644;2023-05-09T07:12:06;19.70;89.60
38936;DHT22;66589;47.458;9.644;2023-05-09T07:14:32;19.90;90.20
38936;DHT22;66589;47.458;9.644;2023-05-09T07:16:57;20.00;89.30
38936;DHT22;66589;47.458;9.644;2023-05-09T07:19:23;20.30;89.00
38936;DHT22;66589;47.458;9.644;2023-05-09T07:21:49;20.60;88.00
38936;DHT22;66589;47.458;9.644;2023-05-09T07:24:14;20.50;88.10
38936;DHT22;66589;47.458;9.644;2023-05-09T07:26:40;20.50;88.50
38936;DHT22;66589;47.458;9.644;2023-05-09T07:29:06;20.60;88.80
38936;DHT22;66589;47.458;9.644;2023-05-09T07:31:32;20.60;86.30
38936;DHT22;66589;47.458;9.644;2023-05-09T07:33:57;20.70;86.40
38936;DHT22;66589;47.458;9.644;2023-05-09T07:36:23;20.80;86.60
38936;DHT22;66589;47.458;9.644;2023-05-09T07:38:49;20.80;86.50
38936;DHT22;66589;47.458;9.644;2023-05-09T07:41:18;21.00;86.40
38936;DHT22;66589;47.458;9.644;2023-05-09T07:43:43;21.10;84.90
38936;DHT22;66589;47.458;9.644;2023-05-09T07:46:09;21.10;85.10
38936;DHT22;66589;47.458;9.644;2023-05-09T07:48:35;21.10;85.10
38936;DHT22;66589;47.458;9.644;2023-05-09T07:51:01;21.20;84.80
38936;DHT22;66589;47.458;9.644;2023-05-09T07:53:26;21.20;83.90
38936;DHT22;66589;47.458;9.644;2023-05-09T07:55:52;21.10;83.80
38936;DHT22;66589;47.458;9.644;2023-05-09T07:58:18;21.20;82.80
38936;DHT22;66589;47.458;9.644;2023-05-09T08:00:44;21.20;82.70
38936;DHT22;66589;47.458;9.644;2023-05-09T08:03:09;21.20;82.80
38936;DHT22;66589;47.458;9.644;2023-05-09T08:05:35;21.10;82.20
38936;DHT22;66589;47.458;9.644;2023-05-09T08:08:01;21.10;83.50
38936;DHT22;66589;47.458;9.644;2023-05-09T08:10:26;21.10;83.10
38936;DHT22;66589;47.458;9.644;2023-05-09T08:12:55;21.00;83.60
38936;DHT22;66589;47.458;9.644;2023-05-09T08:15:21;21.00;83.10
38936;DHT22;66589;47.458;9.644;2023-05-09T08:17:46;21.20;83.00
38936;DHT22;66589;47.458;9.644;2023-05-09T08:20:12;21.40;83.10
38936;DHT22;66589;47.458;9.644;2023-05-09T08:22:41;21.50;82.60
38936;DHT22;66589;47.458;9.644;2023-05-09T08:25:07;21.50;82.70
38936;DHT22;66589;47.458;9.644;2023-05-09T08:27:33;21.50;81.60
38936;DHT22;66589;47.458;9.644;2023-05-09T08:29:59;21.60;80.90
38936;DHT22;66589;47.458;9.644;2023-05-09T08:32:25;21.50;80.60
38936;DHT22;66589;47.458;9.644;2023-05-09T08:34:50;21.50;80.50
38936;DHT22;66589;47.458;9.644;2023-05-09T08:37:16;21.70;81.80
38936;DHT22;66589;47.458;9.644;2023-05-09T08:39:42;21.90;80.50
38936;DHT22;66589;47.458;9.644;2023-05-09T08:42:09;22.30;80.10
38936;DHT22;66589;47.458;9.644;2023-05-09T08:44:35;22.70;78.70
38936;DHT22;66589;47.458;9.644;2023-05-09T08:47:02;23.40;76.20
38936;DHT22;66589;47.458;9.644;2023-05-09T08:49:28;24.40;72.90
38936;DHT22;66589;47.458;9.644;2023-05-09T08:51:55;25.10;69.50
38936;DHT22;66589;47.458;9.644;2023-05-09T08:54:21;27.30;67.50
38936;DHT22;66589;47.458;9.644;2023-05-09T08:56:48;29.60;60.70
38936;DHT22;66589;47.458;9.644;2023-05-09T08:59:15;31.40;58.50
38936;DHT22;66589;47.458;9.644;2023-05-09T09:01:41;33.30;52.30
38936;DHT22;66589;47.458;9.644;2023-05-09T09:04:08;34.50;49.30
38936;DHT22;66589;47.458;9.644;2023-05-09T09:06:36;35.40;48.60
38936;DHT22;66589;47.458;9.644;2023-05-09T09:09:05;36.20;46.30
38936;DHT22;66589;47.458;9.644;2023-05-09T09:11:32;37.40;45.70
38936;DHT22;66589;47.458;9.644;2023-05-09T09:14:01;37.00;44.00
38936;DHT22;66589;47.458;9.644;2023-05-09T09:16:28;36.40;42.70
38936;DHT22;66589;47.458;9.644;2023-05-09T09:18:54;34.80;44.10
38936;DHT22;66589;47.458;9.644;2023-05-09T09:21:21;33.30;45.80
38936;DHT22;66589;47.458;9.644;2023-05-09T09:23:48;32.10;47.20
38936;DHT22;66589;47.458;9.644;2023-05-09T09:26:14;31.80;48.90
38936;DHT22;66589;47.458;9.644;2023-05-09T09:28:41;32.20;48.90
38936;DHT22;66589;47.458;9.644;2023-05-09T09:31:23;33.60;47.00
38936;DHT22;66589;47.458;9.644;2023-05-09T09:33:50;35.30;44.60
38936;DHT22;66589;47.458;9.644;2023-05-09T09:36:24;36.20;42.50
38936;DHT22;66589;47.458;9.644;2023-05-09T09:38:55;35.40;42.40
38936;DHT22;66589;47.458;9.644;2023-05-09T09:41:37;35.60;44.20
38936;DHT22;66589;47.458;9.644;2023-05-09T09:44:07;36.80;43.20
38936;DHT22;66589;47.458;9.644;2023-05-09T09:46:53;38.10;42.40
38936;DHT22;66589;47.458;9.644;2023-05-09T09:49:23;38.00;40.20
38936;DHT22;66589;47.458;9.644;2023-05-09T09:51:54;36.10;41.90
38936;DHT22;66589;47.458;9.644;2023-05-09T09:54:21;34.70;43.70
38936;DHT22;66589;47.458;9.644;2023-05-09T09:56:50;35.30;43.20
38936;DHT22;66589;47.458;9.644;2023-05-09T09:59:20;36.40;41.50
38936;DHT22;66589;47.458;9.644;2023-05-09T10:02:01;36.00;42.70
38936;DHT22;66589;47.458;9.644;2023-05-09T10:04:35;34.20;44.30
38936;DHT22;66589;47.458;9.644;2023-05-09T10:07:03;33.70;43.80
38936;DHT22;66589;47.458;9.644;2023-05-09T10:09:29;33.20;45.00
38936;DHT22;66589;47.458;9.644;2023-05-09T10:11:56;32.80;48.00
38936;DHT22;66589;47.458;9.644;2023-05-09T10:14:25;32.30;46.40
38936;DHT22;66589;47.458;9.644;2023-05-09T10:16:54;31.30;49.60
38936;DHT22;66589;47.458;9.644;2023-05-09T10:19:22;30.30;49.10
38936;DHT22;66589;47.458;9.644;2023-05-09T10:21:53;29.70;50.20
38936;DHT22;66589;47.458;9.644;2023-05-09T10:27:07;28.60;54.70
38936;DHT22;66589;47.458;9.644;2023-05-09T10:29:45;28.30;52.90
38936;DHT22;66589;47.458;9.644;2023-05-09T10:33:00;27.90;53.70
38936;DHT22;66589;47.458;9.644;2023-05-09T10:35:28;27.60;52.60
38936;DHT22;66589;47.458;9.644;2023-05-09T10:37:55;27.20;53.40
38936;DHT22;66589;47.458;9.644;2023-05-09T10:40:22;26.70;56.00
38936;DHT22;66589;47.458;9.644;2023-05-09T10:42:48;26.60;55.20
38936;DHT22;66589;47.458;9.644;2023-05-09T10:45:14;26.40;55.40
38936;DHT22;66589;47.458;9.644;2023-05-09T10:47:41;26.50;57.40
38936;DHT22;66589;47.458;9.644;2023-05-09T10:50:09;26.40;58.00
38936;DHT22;66589;47.458;9.644;2023-05-09T10:55:57;26.40;55.50
38936;DHT22;66589;47.458;9.644;2023-05-09T10:58:33;26.40;55.30
38936;DHT22;66589;47.458;9.644;2023-05-09T11:01:04;26.10;58.30
38936;DHT22;66589;47.458;9.644;2023-05-09T11:06:46;25.90;56.90
38936;DHT22;66589;47.458;9.644;2023-05-09T11:09:34;25.80;58.50
38936;DHT22;66589;47.458;9.644;2023-05-09T11:14:48;26.20;57.50
38936;DHT22;66589;47.458;9.644;2023-05-09T11:22:26;26.10;59.20
38936;DHT22;66589;47.458;9.644;2023-05-09T11:25:13;26.00;57.20
38936;DHT22;66589;47.458;9.644;2023-05-09T11:30:17;26.00;58.90
38936;DHT22;66589;47.458;9.644;2023-05-09T11:32:49;26.10;56.60
38936;DHT22;66589;47.458;9.644;2023-05-09T11:35:17;26.10;59.70
38936;DHT22;66589;47.458;9.644;2023-05-09T11:37:46;26.10;55.80
38936;DHT22;66589;47.458;9.644;2023-05-09T11:40:13;26.10;57.30
38936;DHT22;66589;47.458;9.644;2023-05-09T11:42:44;25.90;56.30
38936;DHT22;66589;47.458;9.644;2023-05-09T11:45:11;25.70;56.00
38936;DHT22;66589;47.458;9.644;2023-05-09T11:47:38;25.70;58.00
38936;DHT22;66589;47.458;9.644;2023-05-09T11:50:11;25.80;56.60
38936;DHT22;66589;47.458;9.644;2023-05-09T11:52:38;25.70;59.10
38936;DHT22;66589;47.458;9.644;2023-05-09T11:55:09;25.70;58.00
38936;DHT22;66589;47.458;9.644;2023-05-09T11:57:39;25.80;57.50
38936;DHT22;66589;47.458;9.644;2023-05-09T12:00:06;25.80;57.30
38936;DHT22;66589;47.458;9.644;2023-05-09T12:02:33;25.60;57.40
38936;DHT22;66589;47.458;9.644;2023-05-09T12:05:07;25.60;56.90
38936;DHT22;66589;47.458;9.644;2023-05-09T12:07:35;25.70;58.70
38936;DHT22;66589;47.458;9.644;2023-05-09T12:10:01;25.70;58.10
38936;DHT22;66589;47.458;9.644;2023-05-09T12:12:28;25.70;59.90
38936;DHT22;66589;47.458;9.644;2023-05-09T12:15:01;25.60;58.50
38936;DHT22;66589;47.458;9.644;2023-05-09T12:17:28;25.50;60.20
38936;DHT22;66589;47.458;9.644;2023-05-09T12:19:56;25.50;59.50
38936;DHT22;66589;47.458;9.644;2023-05-09T12:22:22;25.40;59.90
38936;DHT22;66589;47.458;9.644;2023-05-09T12:24:48;25.40;60.50
38936;DHT22;66589;47.458;9.644;2023-05-09T12:27:14;25.30;59.60
38936;DHT22;66589;47.458;9.644;2023-05-09T12:29:39;25.50;59.00
38936;DHT22;66589;47.458;9.644;2023-05-09T12:32:11;25.50;58.20
38936;DHT22;66589;47.458;9.644;2023-05-09T12:34:37;25.50;58.10
38936;DHT22;66589;47.458;9.644;2023-05-09T12:37:02;25.40;58.50
38936;DHT22;66589;47.458;9.644;2023-05-09T12:39:30;25.60;58.80
38936;DHT22;66589;47.458;9.644;2023-05-09T12:41:56;25.60;58.10
38936;DHT22;66589;47.458;9.644;2023-05-09T12:44:23;25.70;58.10
38936;DHT22;66589;47.458;9.644;2023-05-09T12:47:03;25.60;57.50
38936;DHT22;66589;47.458;9.644;2023-05-09T12:49:30;25.60;59.10
38936;DHT22;66589;47.458;9.644;2023-05-09T12:51:58;25.60;57.70
38936;DHT22;66589;47.458;9.644;2023-05-09T12:54:27;25.60;57.20
38936;DHT22;66589;47.458;9.644;2023-05-09T12:56:55;25.40;57.60
38936;DHT22;66589;47.458;9.644;2023-05-09T12:59:26;25.50;57.50
38936;DHT22;66589;47.458;9.644;2023-05-09T13:01:54;25.40;57.20
38936;DHT22;66589;47.458;9.644;2023-05-09T13:04:21;25.50;56.30
38936;DHT22;66589;47.458;9.644;2023-05-09T13:06:49;25.70;57.40
38936;DHT22;66589;47.458;9.644;2023-05-09T13:09:15;25.80;56.70
38936;DHT22;66589;47.458;9.644;2023-05-09T13:11:40;25.80;56.10
38936;DHT22;66589;47.458;9.644;2023-05-09T13:14:08;26.00;57.00
38936;DHT22;66589;47.458;9.644;2023-05-09T13:16:34;26.00;57.10
38936;DHT22;66589;47.458;9.644;2023-05-09T13:19:00;25.90;55.90
38936;DHT22;66589;47.458;9.644;2023-05-09T13:21:30;26.00;55.30
38936;DHT22;66589;47.458;9.644;2023-05-09T13:23:56;26.00;54.70
38936;DHT22;66589;47.458;9.644;2023-05-09T13:26:22;25.90;54.50
38936;DHT22;66589;47.458;9.644;2023-05-09T13:28:47;25.80;55.00
38936;DHT22;66589;47.458;9.644;2023-05-09T13:31:13;25.80;53.40
38936;DHT22;66589;47.458;9.644;2023-05-09T13:33:39;25.70;53.70
38936;DHT22;66589;47.458;9.644;2023-05-09T13:36:05;25.70;54.90
38936;DHT22;66589;47.458;9.644;2023-05-09T13:38:31;25.50;54.10
38936;DHT22;66589;47.458;9.644;2023-05-09T13:41:01;25.40;55.90
38936;DHT22;66589;47.458;9.644;2023-05-09T13:43:26;25.30;55.00
38936;DHT22;66589;47.458;9.644;2023-05-09T13:45:52;25.30;55.40
38936;DHT22;66589;47.458;9.644;2023-05-09T13:48:18;25.40;54.50
38936;DHT22;66589;47.458;9.644;2023-05-09T13:50:44;25.20;54.60
38936;DHT22;66589;47.458;9.644;2023-05-09T13:53:09;25.10;55.40
38936;DHT22;66589;47.458;9.644;2023-05-09T13:55:35;25.20;54.70
38936;DHT22;66589;47.458;9.644;2023-05-09T13:58:01;25.20;53.80
38936;DHT22;66589;47.458;9.644;2023-05-09T14:00:26;25.30;53.50
38936;DHT22;66589;47.458;9.644;2023-05-09T14:02:52;25.60;54.30
38936;DHT22;66589;47.458;9.644;2023-05-09T14:05:18;25.50;54.10
38936;DHT22;66589;47.458;9.644;2023-05-09T14:07:44;25.60;53.80
38936;DHT22;66589;47.458;9.644;2023-05-09T14:10:11;25.70;52.30
38936;DHT22;66589;47.458;9.644;2023-05-09T14:12:37;25.60;52.80
38936;DHT22;66589;47.458;9.644;2023-05-09T14:15:07;25.50;52.10
38936;DHT22;66589;47.458;9.644;2023-05-09T14:17:33;25.50;52.40
38936;DHT22;66589;47.458;9.644;2023-05-09T14:19:59;25.50;53.30
38936;DHT22;66589;47.458;9.644;2023-05-09T14:22:25;25.50;53.70
38936;DHT22;66589;47.458;9.644;2023-05-09T14:24:51;25.50;53.00
38936;DHT22;66589;47.458;9.644;2023-05-09T14:27:17;25.50;53.00
38936;DHT22;66589;47.458;9.644;2023-05-09T14:29:42;25.50;54.20
38936;DHT22;66589;47.458;9.644;2023-05-09T14:32:08;25.50;54.00
38936;DHT22;66589;47.458;9.644;2023-05-09T14:34:37;25.60;54.10
38936;DHT22;66589;47.458;9.644;2023-05-09T14:37:03;25.40;54.20
38936;DHT22;66589;47.458;9.644;2023-05-09T14:39:31;25.40;54.60
38936;DHT22;66589;47.458;9.644;2023-05-09T14:41:56;25.40;55.00
38936;DHT22;66589;47.458;9.644;2023-05-09T14:44:22;25.40;54.00
38936;DHT22;66589;47.458;9.644;2023-05-09T14:46:49;25.40;54.40
38936;DHT22;66589;47.458;9.644;2023-05-09T14:49:15;25.40;54.70
38936;DHT22;66589;47.458;9.644;2023-05-09T14:51:40;25.40;54.60
38936;DHT22;66589;47.458;9.644;2023-05-09T14:54:06;25.40;54.50
38936;DHT22;66589;47.458;9.644;2023-05-09T14:56:32;25.40;54.70
38936;DHT22;66589;47.458;9.644;2023-05-09T14:58:58;25.30;54.60
38936;DHT22;66589;47.458;9.644;2023-05-09T15:01:24;25.30;54.20
38936;DHT22;66589;47.458;9.644;2023-05-09T15:03:50;25.30;54.50
38936;DHT22;66589;47.458;9.644;2023-05-09T15:06:15;25.20;55.00
38936;DHT22;66589;47.458;9.644;2023-05-09T15:08:41;25.20;55.00
38936;DHT22;66589;47.458;9.644;2023-05-09T15:11:07;25.20;53.70
38936;DHT22;66589;47.458;9.644;2023-05-09T15:13:33;25.20;53.10
38936;DHT22;66589;47.458;9.644;2023-05-09T15:15:58;25.10;53.60
38936;DHT22;66589;47.458;9.644;2023-05-09T15:18:24;25.10;53.80
38936;DHT22;66589;47.458;9.644;2023-05-09T15:20:53;25.20;54.20
38936;DHT22;66589;47.458;9.644;2023-05-09T15:23:19;25.10;54.20
38936;DHT22;66589;47.458;9.644;2023-05-09T15:25:45;25.00;54.60
38936;DHT22;66589;47.458;9.644;2023-05-09T15:28:11;25.00;54.20
38936;DHT22;66589;47.458;9.644;2023-05-09T15:30:37;25.10;53.50
38936;DHT22;66589;47.458;9.644;2023-05-09T15:33:05;25.10;51.80
38936;DHT22;66589;47.458;9.644;2023-05-09T15:35:31;24.80;52.60
38936;DHT22;66589;47.458;9.644;2023-05-09T15:37:57;24.70;53.00
38936;DHT22;66589;47.458;9.644;2023-05-09T15:40:23;24.80;54.20
38936;DHT22;66589;47.458;9.644;2023-05-09T15:42:49;24.80;53.30
38936;DHT22;66589;47.458;9.644;2023-05-09T15:45:15;24.60;52.70
38936;DHT22;66589;47.458;9.644;2023-05-09T15:47:41;24.50;53.30
38936;DHT22;66589;47.458;9.644;2023-05-09T15:50:07;24.40;54.00
38936;DHT22;66589;47.458;9.644;2023-05-09T15:52:33;24.50;54.00
38936;DHT22;66589;47.458;9.644;2023-05-09T15:54:59;24.50;54.20
38936;DHT22;66589;47.458;9.644;2023-05-09T15:57:25;24.40;54.40
38936;DHT22;66589;47.458;9.644;2023-05-09T15:59:51;24.30;54.70
38936;DHT22;66589;47.458;9.644;2023-05-09T16:02:19;24.30;55.70
38936;DHT22;66589;47.458;9.644;2023-05-09T16:04:46;24.20;54.80
38936;DHT22;66589;47.458;9.644;2023-05-09T16:07:11;24.10;54.70
38936;DHT22;66589;47.458;9.644;2023-05-09T16:09:37;24.00;56.50
38936;DHT22;66589;47.458;9.644;2023-05-09T16:12:03;23.90;56.50
38936;DHT22;66589;47.458;9.644;2023-05-09T16:14:29;23.80;56.10
38936;DHT22;66589;47.458;9.644;2023-05-09T16:16:55;23.80;56.90
38936;DHT22;66589;47.458;9.644;2023-05-09T16:19:21;23.60;57.30
38936;DHT22;66589;47.458;9.644;2023-05-09T16:21:47;23.40;57.50
38936;DHT22;66589;47.458;9.644;2023-05-09T16:24:13;23.40;58.20
38936;DHT22;66589;47.458;9.644;2023-05-09T16:26:39;23.30;58.80
38936;DHT22;66589;47.458;9.644;2023-05-09T16:29:05;23.20;58.90
38936;DHT22;66589;47.458;9.644;2023-05-09T16:31:30;23.20;58.50
38936;DHT22;66589;47.458;9.644;2023-05-09T16:33:56;23.10;58.40
38936;DHT22;66589;47.458;9.644;2023-05-09T16:36:22;23.00;59.00
38936;DHT22;66589;47.458;9.644;2023-05-09T16:38:47;22.90;59.80
38936;DHT22;66589;47.458;9.644;2023-05-09T16:41:13;22.70;59.70
38936;DHT22;66589;47.458;9.644;2023-05-09T16:43:39;22.60;60.70
38936;DHT22;66589;47.458;9.644;2023-05-09T16:46:05;22.60;63.30
38936;DHT22;66589;47.458;9.644;2023-05-09T16:48:31;22.50;62.80
38936;DHT22;66589;47.458;9.644;2023-05-09T16:50:57;22.40;64.20
38936;DHT22;66589;47.458;9.644;2023-05-09T16:53:22;22.30;64.40
38936;DHT22;66589;47.458;9.644;2023-05-09T16:55:48;22.10;64.20
38936;DHT22;66589;47.458;9.644;2023-05-09T16:58:15;21.80;65.80
38936;DHT22;66589;47.458;9.644;2023-05-09T17:00:40;21.60;66.00
38936;DHT22;66589;47.458;9.644;2023-05-09T17:03:06;21.50;67.00
38936;DHT22;66589;47.458;9.644;2023-05-09T17:05:32;21.30;67.40
38936;DHT22;66589;47.458;9.644;2023-05-09T17:07:58;21.10;67.20
38936;DHT22;66589;47.458;9.644;2023-05-09T17:10:24;21.10;67.30
38936;DHT22;66589;47.458;9.644;2023-05-09T17:12:50;20.90;67.40
38936;DHT22;66589;47.458;9.644;2023-05-09T17:15:16;20.90;67.60
38936;DHT22;66589;47.458;9.644;2023-05-09T17:17:41;20.80;68.40
38936;DHT22;66589;47.458;9.644;2023-05-09T17:20:08;20.70;68.00
38936;DHT22;66589;47.458;9.644;2023-05-09T17:22:36;20.80;68.40
38936;DHT22;66589;47.458;9.644;2023-05-09T17:25:03;20.60;69.60
38936;DHT22;66589;47.458;9.644;2023-05-09T17:27:29;20.50;71.30
38936;DHT22;66589;47.458;9.644;2023-05-09T17:29:55;20.20;72.70
38936;DHT22;66589;47.458;9.644;2023-05-09T17:32:21;20.20;74.00
38936;DHT22;66589;47.458;9.644;2023-05-09T17:34:47;20.00;75.80
38936;DHT22;66589;47.458;9.644;2023-05-09T17:37:12;19.40;77.90
38936;DHT22;66589;47.458;9.644;2023-05-09T17:39:38;19.10;79.10
38936;DHT22;66589;47.458;9.644;2023-05-09T17:42:05;18.80;79.00
38936;DHT22;66589;47.458;9.644;2023-05-09T17:44:31;18.60;79.80
38936;DHT22;66589;47.458;9.644;2023-05-09T17:46:57;18.40;80.20
38936;DHT22;66589;47.458;9.644;2023-05-09T17:49:23;18.20;80.40
38936;DHT22;66589;47.458;9.644;2023-05-09T17:51:50;18.00;81.80
38936;DHT22;66589;47.458;9.644;2023-05-09T17:54:17;17.90;82.20
38936;DHT22;66589;47.458;9.644;2023-05-09T17:56:44;17.90;82.30
38936;DHT22;66589;47.458;9.644;2023-05-09T17:59:10;17.90;81.50
38936;DHT22;66589;47.458;9.644;2023-05-09T18:01:35;17.80;81.80
38936;DHT22;66589;47.458;9.644;2023-05-09T18:04:01;17.70;83.20
38936;DHT22;66589;47.458;9.644;2023-05-09T18:06:27;17.70;82.70
38936;DHT22;66589;47.458;9.644;2023-05-09T18:08:53;17.60;83.30
38936;DHT22;66589;47.458;9.644;2023-05-09T18:11:19;17.60;83.60
38936;DHT22;66589;47.458;9.644;2023-05-09T18:13:45;17.60;83.10
38936;DHT22;66589;47.458;9.644;2023-05-09T18:16:11;17.60;84.00
38936;DHT22;66589;47.458;9.644;2023-05-09T18:18:37;17.50;83.80
38936;DHT22;66589;47.458;9.644;2023-05-09T18:21:03;17.50;85.00
38936;DHT22;66589;47.458;9.644;2023-05-09T18:23:30;17.40;85.90
38936;DHT22;66589;47.458;9.644;2023-05-09T18:25:55;17.40;86.40
38936;DHT22;66589;47.458;9.644;2023-05-09T18:28:21;17.40;85.90
38936;DHT22;66589;47.458;9.644;2023-05-09T18:30:51;17.40;86.50
38936;DHT22;66589;47.458;9.644;2023-05-09T18:33:22;17.40;87.00
38936;DHT22;66589;47.458;9.644;2023-05-09T18:35:48;17.40;87.20
38936;DHT22;66589;47.458;9.644;2023-05-09T18:38:14;17.50;87.20
38936;DHT22;66589;47.458;9.644;2023-05-09T18:40:39;17.40;89.70
38936;DHT22;66589;47.458;9.644;2023-05-09T18:43:05;17.30;90.20
38936;DHT22;66589;47.458;9.644;2023-05-09T18:45:32;17.30;91.60
38936;DHT22;66589;47.458;9.644;2023-05-09T18:47:59;17.40;90.00
38936;DHT22;66589;47.458;9.644;2023-05-09T18:50:25;17.40;89.80
38936;DHT22;66589;47.458;9.644;2023-05-09T18:52:51;17.30;91.20
38936;DHT22;66589;47.458;9.644;2023-05-09T18:55:17;17.20;91.40
38936;DHT22;66589;47.458;9.644;2023-05-09T18:57:44;17.10;92.10
38936;DHT22;66589;47.458;9.644;2023-05-09T19:00:11;16.90;94.10
38936;DHT22;66589;47.458;9.644;2023-05-09T19:02:37;16.80;94.80
38936;DHT22;66589;47.458;9.644;2023-05-09T19:05:07;16.80;95.30